Time;durP1;ratioP1;P1;durP2;ratioP2;P2;SDS_P1;SDS_P2;PMS_P1;PMS_P2;Temp;Humidity;BMP_temperature;BMP_pressure;BME280_temperature;BME280_humidity;BME280_pressure;Samples;Min_cycle;Max_cycle;Signal;HPM_P1;HPM_P2
2021/10/14 00:01:14;;;;;;;2.83;2.50;;;10.80;99.90;;;;;;5055099;28;20491;-79
2021/10/14 00:03:41;;;;;;;3.63;2.53;;;10.80;99.90;;;;;;5057698;28;20173;-80
2021/10/14 00:06:08;;;;;;;4.75;2.67;;;10.80;99.90;;;;;;5057153;28;20201;-78
2021/10/14 00:08:33;;;;;;;3.42;2.55;;;10.90;99.90;;;;;;5057319;28;20255;-78
2021/10/14 00:10:59;;;;;;;4.33;2.10;;;10.90;99.90;;;;;;5057290;28;20178;-78
2021/10/14 00:13:24;;;;;;;2.13;1.80;;;10.90;99.90;;;;;;5053919;28;20192;-79
2021/10/14 00:15:51;;;;;;;4.10;2.20;;;10.80;99.90;;;;;;5042359;28;20201;-79
2021/10/14 00:18:17;;;;;;;3.33;2.50;;;10.80;99.90;;;;;;5044559;28;20676;-80
2021/10/14 00:20:43;;;;;;;9.50;2.15;;;10.80;99.90;;;;;;5054093;28;20178;-80
2021/10/14 00:23:09;;;;;;;8.90;3.00;;;10.80;99.90;;;;;;5054403;28;20173;-79
2021/10/14 00:25:34;;;;;;;2.70;2.37;;;10.90;99.90;;;;;;5049562;28;20174;-79
2021/10/14 00:28:00;;;;;;;2.87;2.33;;;10.90;99.90;;;;;;5041504;28;20174;-79
2021/10/14 00:30:26;;;;;;;2.73;2.10;;;10.80;99.90;;;;;;5043565;28;20169;-78
2021/10/14 00:32:51;;;;;;;5.20;3.33;;;10.70;99.90;;;;;;5042872;28;20165;-79
2021/10/14 00:35:17;;;;;;;7.40;2.80;;;10.60;99.90;;;;;;5043022;28;20798;-79
2021/10/14 00:37:42;;;;;;;3.07;2.77;;;10.70;99.90;;;;;;5043047;28;20694;-81
2021/10/14 00:40:09;;;;;;;3.97;2.80;;;10.60;99.90;;;;;;5044435;28;20268;-79
2021/10/14 00:42:34;;;;;;;2.40;2.10;;;10.60;99.90;;;;;;5040210;28;20548;-78
2021/10/14 00:45:03;;;;;;;2.57;1.90;;;10.60;99.90;;;;;;5039134;28;20185;-79
2021/10/14 00:47:29;;;;;;;2.50;2.20;;;10.50;99.90;;;;;;5042208;28;20261;-79
2021/10/14 00:49:56;;;;;;;5.55;2.40;;;10.50;99.90;;;;;;5043720;28;20200;-79
2021/10/14 00:52:23;;;;;;;6.05;2.50;;;10.60;99.90;;;;;;5048104;28;20170;-79
2021/10/14 00:54:50;;;;;;;3.50;2.63;;;10.60;99.90;;;;;;5040895;28;20254;-80
2021/10/14 00:57:16;;;;;;;3.72;2.55;;;10.50;99.90;;;;;;5043921;28;20208;-80
2021/10/14 00:59:42;;;;;;;10.95;3.40;;;10.60;99.90;;;;;;5047222;28;20173;-80
2021/10/14 01:02:08;;;;;;;3.58;2.20;;;10.60;99.90;;;;;;5037653;28;20545;-78
2021/10/14 01:04:33;;;;;;;5.80;2.70;;;10.60;99.90;;;;;;5036981;28;20170;-81
2021/10/14 01:07:00;;;;;;;3.40;2.40;;;10.50;99.90;;;;;;5035279;28;20207;-80
2021/10/14 01:09:27;;;;;;;4.85;2.58;;;10.50;99.90;;;;;;5035086;28;20292;-79
2021/10/14 01:12:03;;;;;;;3.88;2.67;;;10.50;99.90;;;;;;5036292;28;20181;-80
2021/10/14 01:14:30;;;;;;;4.30;2.47;;;10.50;99.90;;;;;;5044538;28;20201;-79
2021/10/14 01:16:55;;;;;;;3.70;2.67;;;10.50;99.90;;;;;;5040444;28;20200;-78
2021/10/14 01:19:21;;;;;;;6.40;2.37;;;10.60;99.90;;;;;;5045317;28;20173;-80
2021/10/14 01:21:50;;;;;;;3.33;2.40;;;10.50;99.90;;;;;;5034945;28;20719;-79
2021/10/14 01:24:17;;;;;;;4.75;2.45;;;10.50;99.90;;;;;;5035613;28;20204;-79
2021/10/14 01:26:42;;;;;;;3.50;2.42;;;10.50;99.90;;;;;;5035623;28;20716;-81
2021/10/14 01:29:08;;;;;;;7.40;2.50;;;10.60;99.90;;;;;;5037313;28;20213;-79
2021/10/14 01:31:34;;;;;;;5.80;2.87;;;10.50;99.90;;;;;;5035043;28;20204;-79
2021/10/14 01:34:00;;;;;;;6.10;3.30;;;10.50;99.90;;;;;;5034304;28;20436;-80
2021/10/14 01:36:25;;;;;;;4.57;3.00;;;10.50;99.90;;;;;;5035296;28;20424;-79
2021/10/14 01:38:51;;;;;;;4.97;3.13;;;10.50;99.90;;;;;;5035049;28;20177;-79
2021/10/14 01:41:17;;;;;;;6.53;2.30;;;10.50;99.90;;;;;;5034989;28;20222;-81
2021/10/14 01:43:43;;;;;;;3.90;2.78;;;10.50;99.90;;;;;;5035002;28;20189;-80
2021/10/14 01:46:09;;;;;;;5.23;2.40;;;10.50;99.90;;;;;;5034736;28;20530;-80
2021/10/14 01:48:35;;;;;;;5.25;2.50;;;10.60;99.90;;;;;;5035585;28;20559;-79
2021/10/14 01:51:02;;;;;;;3.97;2.83;;;10.60;99.90;;;;;;5035115;28;20660;-80
2021/10/14 01:53:28;;;;;;;4.25;2.72;;;10.70;99.90;;;;;;5034916;28;20209;-79
2021/10/14 01:55:54;;;;;;;6.55;2.42;;;10.80;99.90;;;;;;5034657;28;20192;-79
2021/10/14 01:58:22;;;;;;;7.23;2.27;;;10.80;99.90;;;;;;5034888;28;20181;-78
2021/10/14 02:00:50;;;;;;;6.45;2.85;;;10.80;99.90;;;;;;5034850;28;20653;-79
2021/10/14 02:03:16;;;;;;;3.47;2.78;;;10.80;99.90;;;;;;5033642;28;20243;-80
2021/10/14 02:05:42;;;;;;;3.45;2.53;;;10.80;99.90;;;;;;5018166;28;20556;-79
2021/10/14 02:08:08;;;;;;;4.68;2.60;;;10.70;99.90;;;;;;5037401;28;20648;-80
2021/10/14 02:10:34;;;;;;;4.10;2.90;;;10.70;99.90;;;;;;5037089;28;20200;-81
2021/10/14 02:12:59;;;;;;;6.20;3.10;;;10.70;99.90;;;;;;5036684;28;20197;-81
2021/10/14 02:15:25;;;;;;;5.27;3.00;;;10.60;99.90;;;;;;5038595;28;20188;-82
2021/10/14 02:17:51;;;;;;;5.70;2.30;;;10.60;99.90;;;;;;5039565;28;20182;-80
2021/10/14 02:20:17;;;;;;;5.23;2.80;;;10.60;99.90;;;;;;5036951;28;20424;-79
2021/10/14 02:22:42;;;;;;;4.80;2.90;;;10.60;99.90;;;;;;5038152;28;20173;-80
2021/10/14 02:25:10;;;;;;;3.97;2.90;;;10.70;99.90;;;;;;5034662;28;20424;-81
2021/10/14 02:27:36;;;;;;;6.22;2.90;;;10.70;99.90;;;;;;5035490;28;20200;-80
2021/10/14 02:30:05;;;;;;;3.83;2.85;;;10.70;99.90;;;;;;5035851;28;20459;-81
2021/10/14 02:32:31;;;;;;;4.22;2.72;;;10.70;99.90;;;;;;5033472;28;20222;-79
2021/10/14 02:34:57;;;;;;;6.10;3.50;;;10.70;99.90;;;;;;5036938;28;20169;-78
2021/10/14 02:37:24;;;;;;;5.05;2.80;;;10.60;99.90;;;;;;5036088;28;20196;-78
2021/10/14 02:39:49;;;;;;;8.30;3.38;;;10.60;99.90;;;;;;5036805;28;20204;-78
2021/10/14 02:42:15;;;;;;;5.13;2.70;;;10.70;99.90;;;;;;5038036;28;20169;-78
2021/10/14 02:44:40;;;;;;;5.90;3.67;;;10.70;99.90;;;;;;5037388;28;20243;-78
2021/10/14 02:47:06;;;;;;;4.33;2.80;;;10.70;99.90;;;;;;5039752;28;20262;-78
2021/10/14 02:49:31;;;;;;;4.17;3.03;;;10.60;99.90;;;;;;5039450;28;20267;-78
2021/10/14 02:51:57;;;;;;;4.43;2.90;;;10.60;99.90;;;;;;5038999;28;20194;-79
2021/10/14 02:54:22;;;;;;;3.83;3.10;;;10.60;99.90;;;;;;5039781;28;20177;-78
2021/10/14 02:56:48;;;;;;;4.10;2.80;;;10.60;99.90;;;;;;5040228;28;20561;-79
2021/10/14 02:59:13;;;;;;;6.10;3.20;;;10.60;99.90;;;;;;5036831;28;20290;-79
2021/10/14 03:01:39;;;;;;;7.37;2.70;;;10.60;99.90;;;;;;5038034;28;20174;-79
2021/10/14 03:04:05;;;;;;;3.80;3.20;;;10.60;99.90;;;;;;5039392;28;20742;-78
2021/10/14 03:06:31;;;;;;;4.40;3.55;;;10.60;99.90;;;;;;5039987;28;20213;-79
2021/10/14 03:08:56;;;;;;;4.27;2.50;;;10.60;99.90;;;;;;5038770;28;20557;-78
2021/10/14 03:11:22;;;;;;;3.63;2.57;;;10.70;99.90;;;;;;5038222;28;20178;-78
2021/10/14 03:13:47;;;;;;;3.37;2.50;;;10.60;99.90;;;;;;5037054;28;20200;-79
2021/10/14 03:16:13;;;;;;;4.10;3.00;;;10.70;99.90;;;;;;5037190;28;20197;-78
2021/10/14 03:18:39;;;;;;;3.53;2.60;;;10.70;99.90;;;;;;5038172;28;20261;-77
2021/10/14 03:21:05;;;;;;;2.40;1.77;;;10.70;99.90;;;;;;5037653;28;20178;-79
2021/10/14 03:23:31;;;;;;;5.22;2.30;;;10.70;99.90;;;;;;5039000;28;20427;-78
2021/10/14 03:25:57;;;;;;;3.10;2.40;;;10.70;99.90;;;;;;5039950;28;20189;-78
2021/10/14 03:28:22;;;;;;;3.67;2.37;;;10.80;99.90;;;;;;5038669;28;20209;-78
2021/10/14 03:30:48;;;;;;;2.80;1.83;;;10.70;99.90;;;;;;5038045;28;20177;-78
2021/10/14 03:33:13;;;;;;;3.83;2.30;;;10.80;99.90;;;;;;5038881;28;20169;-78
2021/10/14 03:35:39;;;;;;;4.37;2.77;;;10.70;99.90;;;;;;5038976;28;20170;-79
2021/10/14 03:38:04;;;;;;;3.40;2.70;;;10.80;99.90;;;;;;5038546;28;20193;-79
2021/10/14 03:40:30;;;;;;;3.00;2.30;;;10.90;99.90;;;;;;5039251;28;20177;-78
2021/10/14 03:42:56;;;;;;;3.07;2.43;;;10.90;99.90;;;;;;5040434;28;20692;-78
2021/10/14 03:45:22;;;;;;;4.80;2.93;;;11.00;99.90;;;;;;5040268;28;20174;-79
2021/10/14 03:47:47;;;;;;;3.65;2.75;;;11.00;99.90;;;;;;5038901;28;20263;-79
2021/10/14 03:50:13;;;;;;;4.07;3.20;;;11.00;99.90;;;;;;5041874;28;20275;-79
2021/10/14 03:52:39;;;;;;;5.57;3.00;;;11.10;99.90;;;;;;5037761;28;20205;-79
2021/10/14 03:55:06;;;;;;;3.77;2.43;;;11.10;99.90;;;;;;5038876;28;20169;-78
2021/10/14 03:57:32;;;;;;;5.05;2.78;;;11.10;99.90;;;;;;5041978;28;20432;-78
2021/10/14 03:59:57;;;;;;;4.80;4.10;;;11.10;99.90;;;;;;5039157;28;20181;-79
2021/10/14 04:02:23;;;;;;;6.90;2.97;;;11.10;99.90;;;;;;5040381;28;20177;-80
2021/10/14 04:04:48;;;;;;;5.20;2.63;;;11.10;99.90;;;;;;5039297;28;20180;-78
2021/10/14 04:07:14;;;;;;;6.00;2.57;;;11.00;99.90;;;;;;5022024;28;20209;-78
2021/10/14 04:09:40;;;;;;;3.60;2.60;;;11.00;99.90;;;;;;5025042;28;20213;-79
2021/10/14 04:12:07;;;;;;;3.20;2.80;;;11.10;99.90;;;;;;5021291;28;20177;-79
2021/10/14 04:14:33;;;;;;;6.63;2.95;;;11.10;99.90;;;;;;5024575;28;20209;-78
2021/10/14 04:16:59;;;;;;;3.97;2.30;;;11.00;99.90;;;;;;5024966;28;20200;-80
2021/10/14 04:19:24;;;;;;;4.53;2.73;;;11.00;99.90;;;;;;5018745;28;20186;-79
2021/10/14 04:21:50;;;;;;;3.70;2.60;;;11.00;99.90;;;;;;5020486;28;20190;-79
2021/10/14 04:24:16;;;;;;;4.70;2.50;;;11.00;99.90;;;;;;5024700;28;20194;-79
2021/10/14 04:26:42;;;;;;;3.60;2.78;;;11.00;99.90;;;;;;5022636;28;20201;-79
2021/10/14 04:29:07;;;;;;;3.67;2.80;;;11.00;99.90;;;;;;5021409;28;20210;-79
2021/10/14 04:31:35;;;;;;;5.80;2.80;;;11.00;99.90;;;;;;5020221;28;20220;-80
2021/10/14 04:34:01;;;;;;;4.07;2.88;;;11.00;99.90;;;;;;5018096;28;20180;-79
2021/10/14 04:36:26;;;;;;;4.50;3.22;;;11.00;99.90;;;;;;5018610;28;20190;-78
2021/10/14 04:38:53;;;;;;;4.50;2.80;;;11.00;99.90;;;;;;5019131;28;20247;-79
2021/10/14 04:41:19;;;;;;;4.10;2.90;;;11.00;99.90;;;;;;5003226;28;20554;-79
2021/10/14 04:43:44;;;;;;;3.42;2.28;;;11.10;99.90;;;;;;5019889;28;20195;-78
2021/10/14 04:46:10;;;;;;;7.57;2.60;;;11.10;99.90;;;;;;5021860;28;20321;-78
2021/10/14 04:48:36;;;;;;;7.77;3.83;;;11.10;99.90;;;;;;5019675;28;20201;-79
2021/10/14 04:51:01;;;;;;;3.70;3.03;;;11.10;99.90;;;;;;5020420;28;20178;-78
2021/10/14 04:53:27;;;;;;;4.80;2.50;;;11.10;99.90;;;;;;5018709;28;20185;-78
2021/10/14 04:55:52;;;;;;;3.43;2.60;;;11.00;99.90;;;;;;5000698;28;20226;-77
2021/10/14 04:58:18;;;;;;;441.80;236.20;;;10.90;99.90;;;;;;5019120;28;20650;-78
2021/10/14 05:00:43;;;;;;;154.53;61.70;;;11.00;99.90;;;;;;5006965;28;20174;-77
2021/10/14 05:03:09;;;;;;;15.43;9.93;;;10.90;99.90;;;;;;5034004;28;20189;-77
2021/10/14 05:05:35;;;;;;;4.20;2.80;;;10.90;99.90;;;;;;5020213;28;20178;-80
2021/10/14 05:08:00;;;;;;;6.13;4.60;;;10.90;99.90;;;;;;5030282;28;20193;-79
2021/10/14 05:10:26;;;;;;;5.43;3.90;;;10.90;99.90;;;;;;5034187;28;20217;-80
2021/10/14 05:12:54;;;;;;;4.90;3.50;;;10.90;99.90;;;;;;5016026;28;20177;-78
2021/10/14 05:15:19;;;;;;;7.43;3.25;;;11.00;99.90;;;;;;5033651;28;20205;-80
2021/10/14 05:17:45;;;;;;;4.50;3.10;;;11.00;99.90;;;;;;5034095;28;20280;-78
2021/10/14 05:20:37;;;;;;;5.70;3.33;;;11.00;99.90;;;;;;5017697;28;20234;-79
2021/10/14 05:23:03;;;;;;;2.95;2.30;;;11.10;99.90;;;;;;4999690;28;20194;-78
2021/10/14 05:25:31;;;;;;;2.67;1.80;;;11.20;99.90;;;;;;5011783;28;20177;-78
2021/10/14 05:27:57;;;;;;;4.03;3.17;;;11.30;99.90;;;;;;5013295;28;20647;-78
2021/10/14 05:30:22;;;;;;;3.63;1.93;;;11.30;99.90;;;;;;5013538;28;20308;-77
2021/10/14 05:32:48;;;;;;;2.10;1.90;;;11.20;99.90;;;;;;5013204;28;20182;-78
2021/10/14 05:35:14;;;;;;;2.80;2.33;;;11.20;99.90;;;;;;5013097;28;20280;-78
2021/10/14 05:37:39;;;;;;;5.27;2.00;;;11.20;99.90;;;;;;5013541;28;20205;-78
2021/10/14 05:40:06;;;;;;;2.27;2.07;;;11.20;99.90;;;;;;5012757;28;20928;-79
2021/10/14 05:42:32;;;;;;;127.13;51.63;;;11.30;99.90;;;;;;5016429;28;20186;-82
2021/10/14 05:48:58;;;;;;;;;;;;;;;;;;;;;
2021/10/14 05:51:37;;;;;;;8.68;4.95;;;11.40;99.90;;;;;;5002080;28;20190;-81
2021/10/14 05:54:02;;;;;;;2.95;2.42;;;11.30;99.90;;;;;;4979148;28;20187;-81
2021/10/14 05:56:28;;;;;;;2.77;2.10;;;11.20;99.90;;;;;;5058292;28;20707;-81
2021/10/14 05:58:54;;;;;;;7.23;4.30;;;11.10;99.90;;;;;;5055210;28;20907;-81
2021/10/14 06:01:20;;;;;;;6.07;3.20;;;11.10;99.90;;;;;;5054504;28;20408;-80
2021/10/14 06:03:48;;;;;;;3.47;2.10;;;11.20;99.90;;;;;;5053702;28;20172;-80
2021/10/14 06:06:14;;;;;;;4.20;2.30;;;11.30;99.90;;;;;;5056107;28;20239;-81
2021/10/14 06:08:39;;;;;;;3.30;2.30;;;11.30;99.90;;;;;;5054765;28;20193;-80
2021/10/14 06:11:05;;;;;;;1.77;1.63;;;11.20;99.90;;;;;;5057720;28;21006;-80
2021/10/14 06:13:31;;;;;;;2.80;2.27;;;11.30;99.90;;;;;;5056309;28;20215;-80
2021/10/14 06:15:56;;;;;;;4.53;2.40;;;11.20;99.90;;;;;;5055150;28;20192;-80
2021/10/14 06:18:22;;;;;;;2.97;2.50;;;11.30;99.90;;;;;;5057211;28;20185;-81
2021/10/14 06:20:47;;;;;;;3.00;2.17;;;11.30;99.90;;;;;;5040138;28;20207;-81
2021/10/14 06:23:13;;;;;;;2.67;1.70;;;11.40;99.90;;;;;;5056162;28;20187;-81
2021/10/14 06:25:41;;;;;;;2.87;1.90;;;11.30;99.90;;;;;;5057105;28;20181;-81
2021/10/14 06:28:06;;;;;;;3.05;1.90;;;11.30;99.90;;;;;;5056777;28;20169;-81
2021/10/14 06:30:32;;;;;;;3.50;2.03;;;11.20;99.90;;;;;;5057171;28;20273;-81
2021/10/14 06:32:58;;;;;;;2.60;2.10;;;11.20;99.90;;;;;;5022327;28;20180;-81
2021/10/14 06:35:25;;;;;;;3.15;2.08;;;11.20;99.90;;;;;;5055030;28;20415;-80
2021/10/14 06:37:50;;;;;;;3.63;2.53;;;11.20;99.90;;;;;;5057215;28;20230;-80
2021/10/14 06:40:18;;;;;;;3.23;2.30;;;11.10;99.90;;;;;;5055621;28;20181;-78
2021/10/14 06:42:44;;;;;;;2.70;1.85;;;11.10;99.90;;;;;;5052430;28;20390;-78
2021/10/14 06:45:09;;;;;;;2.37;1.80;;;11.10;99.90;;;;;;5051687;28;20544;-79
2021/10/14 06:47:35;;;;;;;3.27;1.83;;;11.10;99.90;;;;;;5033696;28;20703;-78
2021/10/14 06:50:03;;;;;;;2.77;1.90;;;11.10;99.90;;;;;;5051756;28;20204;-77
2021/10/14 06:52:28;;;;;;;25.67;13.10;;;11.10;99.90;;;;;;5033656;28;20424;-77
2021/10/14 06:54:54;;;;;;;155.80;63.60;;;11.10;99.90;;;;;;5051492;28;20165;-77
2021/10/14 06:57:20;;;;;;;16.53;7.80;;;11.10;99.90;;;;;;5051543;28;20612;-77
2021/10/14 06:59:45;;;;;;;6.77;4.10;;;11.20;99.90;;;;;;5051843;28;20247;-77
2021/10/14 07:02:11;;;;;;;5.40;3.43;;;11.20;99.90;;;;;;5050298;28;20173;-77
2021/10/14 07:04:36;;;;;;;4.00;2.37;;;11.20;99.90;;;;;;5051243;28;20181;-78
2021/10/14 07:07:02;;;;;;;4.67;3.27;;;11.20;99.90;;;;;;5051066;28;20216;-78
2021/10/14 07:09:27;;;;;;;4.53;2.80;;;11.20;99.90;;;;;;5051660;28;20209;-78
2021/10/14 07:11:57;;;;;;;3.20;2.00;;;11.20;99.90;;;;;;5051398;28;20226;-78
2021/10/14 07:14:22;;;;;;;3.45;2.70;;;11.20;99.90;;;;;;5051826;28;20175;-77
2021/10/14 07:16:49;;;;;;;3.47;2.37;;;11.30;99.90;;;;;;5051589;28;20196;-77
2021/10/14 07:19:15;;;;;;;3.10;2.50;;;11.30;99.90;;;;;;5017322;28;20673;-78
2021/10/14 07:21:49;;;;;;;3.00;2.45;;;11.40;99.90;;;;;;5050462;28;20215;-78
2021/10/14 07:24:17;;;;;;;3.47;2.22;;;11.40;99.90;;;;;;5049883;28;20173;-78
2021/10/14 07:26:43;;;;;;;3.17;2.15;;;11.40;99.90;;;;;;5054441;28;20294;-78
2021/10/14 07:29:08;;;;;;;3.43;2.33;;;11.40;99.90;;;;;;5054024;28;20696;-78
2021/10/14 07:31:34;;;;;;;5.13;2.40;;;11.40;99.90;;;;;;5053527;28;20441;-78
2021/10/14 07:33:59;;;;;;;4.80;2.50;;;11.40;99.90;;;;;;5054906;28;20173;-78
2021/10/14 07:36:25;;;;;;;2.30;2.10;;;11.40;99.90;;;;;;5053947;28;20193;-79
2021/10/14 07:38:50;;;;;;;248.57;135.70;;;11.50;99.90;;;;;;5054910;28;20177;-77
2021/10/14 07:41:16;;;;;;;141.40;58.37;;;11.50;99.90;;;;;;5053507;28;20168;-77
2021/10/14 07:43:41;;;;;;;16.13;8.73;;;11.40;99.90;;;;;;5053372;28;20683;-77
2021/10/14 07:46:08;;;;;;;5.70;3.33;;;11.50;99.90;;;;;;5054550;28;20303;-78
2021/10/14 07:48:37;;;;;;;9.95;3.50;;;11.40;99.90;;;;;;5054464;28;20246;-78
2021/10/14 07:51:04;;;;;;;4.47;2.97;;;11.50;99.90;;;;;;5054861;28;20161;-78
2021/10/14 07:53:29;;;;;;;5.00;4.10;;;11.50;99.90;;;;;;5053041;28;20250;-78
2021/10/14 07:55:55;;;;;;;4.57;2.60;;;11.50;99.90;;;;;;5054464;28;20192;-77
2021/10/14 07:58:20;;;;;;;5.90;3.20;;;11.60;99.90;;;;;;5036792;28;20169;-77
2021/10/14 08:00:46;;;;;;;5.97;3.20;;;11.70;99.90;;;;;;5054570;28;20686;-78
2021/10/14 08:03:12;;;;;;;4.57;3.50;;;11.80;99.90;;;;;;5054418;28;20549;-78
2021/10/14 08:05:38;;;;;;;5.32;4.00;;;11.90;99.90;;;;;;5054351;28;20256;-78
2021/10/14 08:08:05;;;;;;;4.18;2.90;;;12.10;99.90;;;;;;5052863;28;20225;-78
2021/10/14 08:10:34;;;;;;;106.88;48.83;;;12.00;99.90;;;;;;5053390;28;20224;-78
2021/10/14 08:13:00;;;;;;;17.20;7.30;;;12.00;99.90;;;;;;5053789;28;20544;-78
2021/10/14 08:15:26;;;;;;;6.73;4.07;;;11.90;99.90;;;;;;5054260;28;20176;-78
2021/10/14 08:17:51;;;;;;;6.97;4.33;;;11.80;99.90;;;;;;5054872;28;20415;-78
2021/10/14 08:20:17;;;;;;;6.63;3.50;;;11.90;99.90;;;;;;5054043;28;20172;-79
2021/10/14 08:22:51;;;;;;;7.83;3.70;;;11.90;99.90;;;;;;5055541;28;20205;-79
2021/10/14 08:25:16;;;;;;;5.57;3.33;;;11.90;99.90;;;;;;5052666;28;20875;-78
2021/10/14 08:27:46;;;;;;;6.63;3.80;;;11.90;99.90;;;;;;5053506;28;20319;-77
2021/10/14 08:30:13;;;;;;;8.10;3.67;;;11.90;99.90;;;;;;5053943;28;20715;-77
2021/10/14 08:32:41;;;;;;;5.15;3.30;;;11.90;99.90;;;;;;5053158;28;20231;-78
2021/10/14 08:35:08;;;;;;;7.53;4.03;;;11.90;99.90;;;;;;5053155;28;20514;-77
2021/10/14 08:37:33;;;;;;;4.32;2.80;;;12.00;99.90;;;;;;5052881;28;20197;-77
2021/10/14 08:39:58;;;;;;;7.10;3.47;;;12.00;99.90;;;;;;5053426;28;20177;-78
2021/10/14 08:42:24;;;;;;;6.73;3.60;;;12.00;99.90;;;;;;5052220;28;20559;-77
2021/10/14 08:44:50;;;;;;;6.00;2.90;;;12.10;99.90;;;;;;5053643;28;20211;-78
2021/10/14 08:47:16;;;;;;;7.90;4.40;;;12.10;99.90;;;;;;5052150;28;20216;-78
2021/10/14 08:49:46;;;;;;;7.23;3.70;;;12.10;99.90;;;;;;5036150;28;20459;-77
2021/10/14 08:52:14;;;;;;;6.03;3.50;;;12.20;99.90;;;;;;5053422;28;20177;-77
2021/10/14 08:54:41;;;;;;;66.68;28.63;;;12.20;99.90;;;;;;5055052;28;20203;-78
2021/10/14 08:57:07;;;;;;;40.35;20.38;;;12.20;99.90;;;;;;5054847;28;20209;-79
2021/10/14 08:59:33;;;;;;;7.22;4.47;;;12.20;99.90;;;;;;5054549;28;20242;-79
2021/10/14 09:02:16;;;;;;;13.98;5.60;;;12.10;99.90;;;;;;5052735;28;20207;-78
2021/10/14 09:04:48;;;;;;;10.70;5.60;;;12.10;99.90;;;;;;5057547;28;20172;-78
2021/10/14 09:07:19;;;;;;;8.27;5.05;;;12.10;99.90;;;;;;5054058;28;20248;-78
2021/10/14 09:09:48;;;;;;;8.40;5.35;;;12.10;99.90;;;;;;5054414;28;20646;-79
2021/10/14 09:12:16;;;;;;;7.82;4.32;;;12.20;99.90;;;;;;5055261;28;20177;-79
2021/10/14 09:14:57;;;;;;;6.70;3.50;;;12.50;99.90;;;;;;5056400;28;20180;-79
2021/10/14 09:17:37;;;;;;;7.95;4.38;;;12.50;99.90;;;;;;5055923;28;20471;-79
2021/10/14 09:20:25;;;;;;;5.88;3.67;;;12.60;99.90;;;;;;5055643;28;20195;-79
2021/10/14 09:23:21;;;;;;;6.95;3.50;;;12.80;99.90;;;;;;5054269;28;20181;-80
2021/10/14 09:25:49;;;;;;;8.85;4.25;;;12.70;99.90;;;;;;5055902;28;20285;-79
2021/10/14 09:28:19;;;;;;;5.28;3.92;;;12.40;99.90;;;;;;5056357;28;20255;-79
2021/10/14 09:30:54;;;;;;;4.57;3.30;;;12.30;99.90;;;;;;5053983;28;20612;-79
2021/10/14 09:33:42;;;;;;;6.28;3.75;;;12.20;99.90;;;;;;5054111;28;20588;-78
2021/10/14 09:36:16;;;;;;;6.80;4.15;;;12.10;99.90;;;;;;5036738;28;20193;-78
2021/10/14 09:38:45;;;;;;;6.95;3.97;;;12.00;99.90;;;;;;5053963;28;20203;-79
2021/10/14 09:41:13;;;;;;;7.50;3.88;;;12.10;99.90;;;;;;5055546;28;20553;-79
2021/10/14 09:43:40;;;;;;;6.85;4.15;;;12.10;99.90;;;;;;5054407;28;20169;-79
2021/10/14 09:46:05;;;;;;;9.50;4.50;;;12.00;99.90;;;;;;5054221;28;20203;-79
2021/10/14 09:48:31;;;;;;;6.40;3.60;;;12.10;99.90;;;;;;5055576;28;20307;-79
2021/10/14 09:50:57;;;;;;;6.10;3.72;;;12.10;99.90;;;;;;5039935;28;20211;-81
2021/10/14 09:53:25;;;;;;;5.03;3.20;;;12.30;99.90;;;;;;5054536;28;20180;-78
2021/10/14 09:55:52;;;;;;;6.53;4.20;;;12.20;99.90;;;;;;5051772;28;20389;-77
2021/10/14 09:58:19;;;;;;;6.13;3.40;;;12.20;99.90;;;;;;5051380;28;20169;-78
2021/10/14 10:00:46;;;;;;;5.68;2.72;;;12.20;99.90;;;;;;5051571;28;20173;-78
2021/10/14 10:03:22;;;;;;;4.13;2.85;;;12.20;99.90;;;;;;5052388;28;20246;-77
2021/10/14 10:05:54;;;;;;;4.93;3.05;;;12.20;99.90;;;;;;5052302;28;20188;-78
2021/10/14 10:08:31;;;;;;;6.32;3.35;;;12.20;99.90;;;;;;5052593;28;20169;-77
2021/10/14 10:11:01;;;;;;;6.25;3.03;;;12.20;99.90;;;;;;5054068;28;20172;-78
2021/10/14 10:13:28;;;;;;;4.38;3.50;;;12.20;99.90;;;;;;5054059;28;20165;-79
2021/10/14 10:15:54;;;;;;;16.20;3.40;;;12.30;99.90;;;;;;5052717;28;20213;-78
2021/10/14 10:18:28;;;;;;;5.50;3.20;;;12.40;99.90;;;;;;5052854;28;20173;-78
2021/10/14 10:20:55;;;;;;;7.70;3.45;;;12.50;99.90;;;;;;5053939;28;20715;-78
2021/10/14 10:23:43;;;;;;;4.50;3.03;;;12.60;99.90;;;;;;5053633;28;20212;-78
2021/10/14 10:26:36;;;;;;;5.63;3.40;;;12.70;99.90;;;;;;5053939;28;20189;-78
2021/10/14 10:29:27;;;;;;;4.72;3.05;;;12.90;99.90;;;;;;5055216;28;20196;-79
2021/10/14 10:31:53;;;;;;;3.75;2.33;;;12.90;99.90;;;;;;5055202;28;20176;-78
2021/10/14 10:34:41;;;;;;;10.60;5.35;;;13.00;99.90;;;;;;5054275;28;20169;-78
2021/10/14 10:37:25;;;;;;;5.20;2.85;;;13.10;99.90;;;;;;5055221;28;20204;-78
2021/10/14 10:39:56;;;;;;;8.57;3.83;;;13.10;99.90;;;;;;5055682;28;20303;-77
2021/10/14 10:42:24;;;;;;;6.20;3.83;;;12.90;99.90;;;;;;5055811;28;20180;-78
2021/10/14 10:44:51;;;;;;;4.50;3.10;;;12.90;99.90;;;;;;5054675;28;20660;-78
2021/10/14 10:47:40;;;;;;;6.68;3.60;;;12.90;99.90;;;;;;5051727;28;20212;-78
2021/10/14 10:50:12;;;;;;;4.15;2.25;;;13.00;99.90;;;;;;5052607;28;20660;-78
2021/10/14 10:52:43;;;;;;;2.95;2.05;;;13.00;99.90;;;;;;5051539;28;20294;-78
2021/10/14 10:55:21;;;;;;;4.22;2.75;;;12.90;99.90;;;;;;5053632;28;20567;-78
2021/10/14 10:57:52;;;;;;;3.08;2.35;;;12.90;99.90;;;;;;5051661;28;20476;-78
2021/10/14 11:00:20;;;;;;;6.57;2.83;;;13.00;99.90;;;;;;5052025;28;20185;-78
2021/10/14 11:03:05;;;;;;;2.40;2.05;;;13.00;99.90;;;;;;5056518;28;20203;-78
2021/10/14 11:05:48;;;;;;;4.20;2.10;;;13.00;99.90;;;;;;5055968;28;20203;-78
2021/10/14 11:08:22;;;;;;;1.90;1.27;;;13.10;99.90;;;;;;5055301;28;20272;-78
2021/10/14 11:10:51;;;;;;;3.20;2.00;;;12.90;99.90;;;;;;5057081;28;20244;-78
2021/10/14 11:13:17;;;;;;;3.25;1.98;;;12.90;99.90;;;;;;5056105;28;20165;-78
2021/10/14 11:15:53;;;;;;;7.32;2.22;;;13.00;99.90;;;;;;5038955;28;20644;-78
2021/10/14 11:18:21;;;;;;;3.17;1.45;;;13.10;99.90;;;;;;5055747;28;20302;-78
2021/10/14 11:21:12;;;;;;;2.25;1.45;;;13.10;99.90;;;;;;5056132;28;20180;-78
2021/10/14 11:23:47;;;;;;;2.00;1.83;;;13.00;99.90;;;;;;5057197;28;20402;-78
2021/10/14 11:26:14;;;;;;;2.20;1.52;;;12.90;99.90;;;;;;5054926;28;20196;-78
2021/10/14 11:29:20;;;;;;;2.67;1.80;;;12.90;99.90;;;;;;5055660;28;20184;-78
2021/10/14 11:31:59;;;;;;;10.68;2.60;;;12.90;99.90;;;;;;5016463;28;20180;-79
2021/10/14 11:34:27;;;;;;;3.33;1.98;;;12.80;99.90;;;;;;5042371;28;20168;-79
2021/10/14 11:37:04;;;;;;;2.33;2.10;;;12.80;99.90;;;;;;5062294;28;20184;-79
2021/10/14 11:39:35;;;;;;;4.00;2.65;;;12.80;99.90;;;;;;5062727;28;20175;-79
2021/10/14 11:42:04;;;;;;;4.13;2.47;;;12.80;99.90;;;;;;5059949;28;20596;-78
2021/10/14 11:44:33;;;;;;;2.65;2.45;;;12.80;99.90;;;;;;5053636;28;20168;-78
2021/10/14 11:46:59;;;;;;;1.88;1.70;;;12.80;99.90;;;;;;5054927;28;20653;-78
2021/10/14 11:49:27;;;;;;;2.88;1.42;;;12.80;99.90;;;;;;5056354;28;20216;-78
2021/10/14 11:51:54;;;;;;;2.65;2.05;;;12.80;99.90;;;;;;5054650;28;20169;-78
2021/10/14 11:54:20;;;;;;;3.85;2.83;;;12.70;99.90;;;;;;5053441;28;20177;-77
2021/10/14 11:56:49;;;;;;;5.50;3.15;;;12.70;99.90;;;;;;5055130;28;20195;-78
2021/10/14 11:59:24;;;;;;;5.95;2.65;;;12.60;99.90;;;;;;5053458;28;20172;-77
2021/10/14 12:02:01;;;;;;;4.30;3.00;;;12.60;99.90;;;;;;5053414;28;20218;-77
2021/10/14 12:04:29;;;;;;;3.20;2.00;;;12.50;99.90;;;;;;5053009;28;20536;-76
2021/10/14 12:06:56;;;;;;;6.45;3.80;;;12.60;99.90;;;;;;5055225;28;20663;-78
2021/10/14 12:09:25;;;;;;;261.58;122.93;;;12.60;99.90;;;;;;5055657;28;20208;-78
2021/10/14 12:12:06;;;;;;;14.45;9.85;;;12.80;99.90;;;;;;5060083;28;20175;-79
2021/10/14 12:14:31;;;;;;;9.13;5.10;;;12.80;99.90;;;;;;5055634;28;20636;-78
2021/10/14 12:17:24;;;;;;;12.23;6.27;;;12.90;99.90;;;;;;5053333;28;20196;-80
2021/10/14 12:19:51;;;;;;;7.43;5.50;;;12.90;99.90;;;;;;5053218;28;20272;-79
2021/10/14 12:22:20;;;;;;;7.72;5.10;;;13.00;99.90;;;;;;5054340;28;20656;-79
2021/10/14 12:25:00;;;;;;;9.15;4.72;;;13.00;99.90;;;;;;5039936;28;20185;-79
2021/10/14 12:27:49;;;;;;;5.60;3.83;;;13.00;99.90;;;;;;5058288;28;20246;-79
2021/10/14 12:30:19;;;;;;;6.78;3.90;;;13.00;99.90;;;;;;5057672;28;20193;-79
2021/10/14 12:32:45;;;;;;;7.65;4.05;;;13.00;99.90;;;;;;5057815;28;20247;-79
2021/10/14 12:35:13;;;;;;;7.73;5.03;;;13.00;99.90;;;;;;5056937;28;20188;-79
2021/10/14 12:37:39;;;;;;;7.75;3.67;;;13.00;99.90;;;;;;5057423;28;20196;-79
2021/10/14 12:40:20;;;;;;;5.77;3.20;;;13.10;99.90;;;;;;5057319;28;20276;-80
2021/10/14 12:42:58;;;;;;;21.17;7.35;;;13.10;99.90;;;;;;5041674;28;20454;-82
2021/10/14 12:45:39;;;;;;;8.50;4.53;;;13.20;99.90;;;;;;5054903;28;20680;-78
2021/10/14 12:51:10;;;;;;;29.88;12.65;;;13.40;99.90;;;;;;5053170;28;20164;-78
2021/10/14 12:53:44;;;;;;;14.82;6.40;;;13.50;99.90;;;;;;5050920;28;20172;-78
2021/10/14 12:56:15;;;;;;;9.10;5.82;;;13.60;99.90;;;;;;5051087;28;20203;-77
2021/10/14 12:58:41;;;;;;;13.52;7.22;;;13.60;99.90;;;;;;5052910;28;20165;-78